createdAt,value
2019-01-20T00:02:11.057Z,13.80
2019-01-20T00:04:38.698Z,12.35
2019-01-20T00:07:06.360Z,13.50
2019-01-20T00:09:34.092Z,12.03
2019-01-20T00:12:01.862Z,12.10
2019-01-20T00:14:29.518Z,12.15
2019-01-20T00:16:57.223Z,13.58
2019-01-20T00:19:24.894Z,14.38
2019-01-20T00:21:52.574Z,13.53
2019-01-20T00:24:20.304Z,13.62
2019-01-20T00:26:47.937Z,16.02
2019-01-20T00:29:15.594Z,11.80
2019-01-20T00:31:43.320Z,12.88
2019-01-20T00:34:11.001Z,12.13
2019-01-20T00:36:38.736Z,13.43
2019-01-20T00:39:08.024Z,11.65
2019-01-20T00:41:35.679Z,14.38
2019-01-20T00:44:03.581Z,14.30
2019-01-20T00:46:31.249Z,12.95
2019-01-20T00:48:58.936Z,13.55
2019-01-20T00:51:26.751Z,13.72
2019-01-20T00:53:54.451Z,12.95
2019-01-20T00:56:22.121Z,14.40
2019-01-20T00:58:49.741Z,13.70
2019-01-20T01:01:17.403Z,14.78
2019-01-20T01:03:45.090Z,13.53
2019-01-20T01:06:12.940Z,15.45
2019-01-20T01:08:40.659Z,13.13
2019-01-20T01:11:08.273Z,13.72
2019-01-20T01:13:36.350Z,15.60
2019-01-20T01:16:04.103Z,13.08
2019-01-20T01:18:31.796Z,15.38
2019-01-20T01:20:59.474Z,15.58
2019-01-20T01:23:27.157Z,14.03
2019-01-20T01:25:54.784Z,14.80
2019-01-20T01:28:22.520Z,13.75
2019-01-20T01:30:50.167Z,15.15
2019-01-20T01:33:17.817Z,15.48
2019-01-20T01:35:45.537Z,14.40
2019-01-20T01:38:13.162Z,13.48
2019-01-20T01:40:41.099Z,14.13
2019-01-20T01:43:08.749Z,14.20
2019-01-20T01:45:36.397Z,13.80
2019-01-20T01:48:04.108Z,12.85
2019-01-20T01:50:31.753Z,12.70
2019-01-20T01:52:59.413Z,12.55
2019-01-20T01:55:27.152Z,14.20
2019-01-20T01:57:54.801Z,14.30
2019-01-20T02:00:23.059Z,13.85
2019-01-20T02:02:50.751Z,14.90
2019-01-20T02:05:18.688Z,12.37
2019-01-20T02:07:46.510Z,13.78
2019-01-20T02:10:16.357Z,13.22
2019-01-20T02:12:44.148Z,12.98
2019-01-20T02:15:12.849Z,14.58
2019-01-20T02:17:40.604Z,13.13
2019-01-20T02:20:09.967Z,14.40
2019-01-20T02:22:37.612Z,12.95
2019-01-20T02:25:05.904Z,13.65
2019-01-20T02:27:33.519Z,13.85
2019-01-20T02:30:01.215Z,12.65
2019-01-20T02:32:29.034Z,13.50
2019-01-20T02:34:56.652Z,13.45
2019-01-20T02:37:24.298Z,15.18
2019-01-20T02:39:51.953Z,14.45
2019-01-20T02:42:19.620Z,14.63
2019-01-20T02:44:47.271Z,13.53
2019-01-20T02:47:14.931Z,13.78
2019-01-20T02:49:42.694Z,14.43
2019-01-20T02:52:10.329Z,15.40
2019-01-20T02:54:37.968Z,16.40
2019-01-20T02:57:05.628Z,16.70
2019-01-20T02:59:33.232Z,15.35
2019-01-20T03:02:00.928Z,17.82
2019-01-20T03:04:28.608Z,16.37
2019-01-20T03:06:56.331Z,15.00
2019-01-20T03:09:23.976Z,15.98
2019-01-20T03:11:51.648Z,16.23
2019-01-20T03:14:19.295Z,15.78
2019-01-20T03:16:46.988Z,14.87
2019-01-20T03:19:14.615Z,15.80
2019-01-20T03:21:42.494Z,15.58
2019-01-20T03:24:10.134Z,14.80
2019-01-20T03:26:37.808Z,17.32
2019-01-20T03:29:05.446Z,17.12
2019-01-20T03:31:33.110Z,15.68
2019-01-20T03:34:00.727Z,16.40
2019-01-20T03:36:28.364Z,16.57
2019-01-20T03:38:56.114Z,15.85
2019-01-20T03:41:23.780Z,16.70
2019-01-20T03:43:51.445Z,16.77
2019-01-20T03:46:19.113Z,16.23
2019-01-20T03:48:46.776Z,16.37
2019-01-20T03:51:14.441Z,15.83
2019-01-20T03:53:42.064Z,16.45
2019-01-20T03:56:09.767Z,17.65
2019-01-20T03:58:37.410Z,17.00
2019-01-20T04:01:05.070Z,17.15
2019-01-20T04:03:32.774Z,14.95
2019-01-20T04:06:00.451Z,16.65
2019-01-20T04:08:28.121Z,16.27
2019-01-20T04:10:55.767Z,16.67
2019-01-20T04:13:23.442Z,18.32
2019-01-20T04:15:51.079Z,15.93
2019-01-20T04:18:18.723Z,17.50
2019-01-20T04:20:46.406Z,14.78
2019-01-20T04:23:14.083Z,17.20
2019-01-20T04:25:41.731Z,14.70
2019-01-20T04:28:09.550Z,14.98
2019-01-20T04:30:37.217Z,13.70
2019-01-20T04:33:04.867Z,17.55
2019-01-20T04:35:32.546Z,15.50
2019-01-20T04:38:00.174Z,17.95
2019-01-20T04:40:28.159Z,15.83
2019-01-20T04:42:55.814Z,18.23
2019-01-20T04:45:23.610Z,17.05
2019-01-20T04:47:51.273Z,16.17
2019-01-20T04:50:20.805Z,17.87
2019-01-20T04:52:48.596Z,18.77
2019-01-20T04:55:16.680Z,15.93
2019-01-20T04:57:48.337Z,18.37
2019-01-20T05:00:17.693Z,15.78
2019-01-20T05:02:45.363Z,16.10
2019-01-20T05:05:13.205Z,18.57
2019-01-20T05:07:40.889Z,17.40
2019-01-20T05:10:10.168Z,17.52
2019-01-20T05:12:38.078Z,18.32
2019-01-20T05:15:07.795Z,20.48
2019-01-20T05:17:35.524Z,19.77
2019-01-20T05:20:04.419Z,20.05
2019-01-20T05:22:32.107Z,17.55
2019-01-20T05:24:59.716Z,20.88
2019-01-20T05:27:27.469Z,19.98
2019-01-20T05:29:55.123Z,18.37
2019-01-20T05:32:22.796Z,19.60
2019-01-20T05:34:50.448Z,18.73
2019-01-20T05:37:18.034Z,17.00
2019-01-20T05:39:45.707Z,17.82
2019-01-20T05:42:13.339Z,17.35
2019-01-20T05:44:41.040Z,18.07
2019-01-20T05:47:08.671Z,17.35
2019-01-20T05:49:36.374Z,19.67
2019-01-20T05:52:04.211Z,17.23
2019-01-20T05:54:31.859Z,18.05
2019-01-20T05:56:59.540Z,19.48
2019-01-20T05:59:27.232Z,18.42
2019-01-20T06:01:54.909Z,19.80
2019-01-20T06:04:22.552Z,19.73
2019-01-20T06:06:50.336Z,20.35
2019-01-20T06:09:17.996Z,19.35
2019-01-20T06:11:45.660Z,17.67
2019-01-20T06:14:13.357Z,15.70
2019-01-20T06:16:40.978Z,19.10
2019-01-20T06:19:08.628Z,19.73
2019-01-20T06:21:36.262Z,16.75
2019-01-20T06:24:04.055Z,16.90
2019-01-20T06:26:31.681Z,16.52
2019-01-20T06:28:59.328Z,16.80
2019-01-20T06:31:27.020Z,17.32
2019-01-20T06:33:54.711Z,16.57
2019-01-20T06:36:22.369Z,18.17
2019-01-20T06:38:50.058Z,15.75
2019-01-20T06:41:17.680Z,17.65
2019-01-20T06:43:45.345Z,16.27
2019-01-20T06:46:13.010Z,16.35
2019-01-20T06:48:40.659Z,16.85
2019-01-20T06:51:08.309Z,18.70
2019-01-20T06:53:36.015Z,17.80
2019-01-20T06:56:03.991Z,17.32
2019-01-20T06:58:31.652Z,15.50
2019-01-20T07:00:59.336Z,15.30
2019-01-20T07:03:26.996Z,17.57
2019-01-20T07:05:54.608Z,17.55
2019-01-20T07:08:22.339Z,19.42
2019-01-20T07:10:50.013Z,17.42
2019-01-20T07:13:17.690Z,15.35
2019-01-20T07:15:45.335Z,15.60
2019-01-20T07:18:13.022Z,17.75
2019-01-20T07:20:40.681Z,16.23
2019-01-20T07:23:08.356Z,16.20
2019-01-20T07:25:36.060Z,17.25
2019-01-20T07:28:03.771Z,21.87
2019-01-20T07:30:31.435Z,17.23
2019-01-20T07:32:59.083Z,19.17
2019-01-20T07:35:26.770Z,18.65
2019-01-20T07:37:54.444Z,16.57
2019-01-20T07:40:22.849Z,18.52
2019-01-20T07:42:50.594Z,16.50
2019-01-20T07:45:18.282Z,19.82
2019-01-20T07:47:45.923Z,18.30
2019-01-20T07:50:18.643Z,19.17
2019-01-20T07:52:46.288Z,18.70
2019-01-20T07:55:14.068Z,18.87
2019-01-20T07:57:41.697Z,17.15
2019-01-20T08:00:11.784Z,18.17
2019-01-20T08:02:39.552Z,16.60
2019-01-20T08:05:07.536Z,17.17
2019-01-20T08:07:35.209Z,18.40
2019-01-20T08:10:03.352Z,17.50
2019-01-20T08:12:31.014Z,19.25
2019-01-20T08:14:58.689Z,18.70
2019-01-20T08:17:26.471Z,18.37
2019-01-20T08:19:54.095Z,19.23
2019-01-20T08:22:21.716Z,19.20
2019-01-20T08:24:49.390Z,19.30
2019-01-20T08:27:17.032Z,20.02
2019-01-20T08:29:44.668Z,25.90
2019-01-20T08:32:12.334Z,28.20
2019-01-20T08:34:39.994Z,22.90
2019-01-20T08:37:07.623Z,23.90
2019-01-20T08:39:35.358Z,23.27
2019-01-20T08:42:03.031Z,26.33
2019-01-20T08:44:33.912Z,27.50
2019-01-20T08:47:16.429Z,25.15
2019-01-20T08:49:44.095Z,24.90
2019-01-20T08:52:11.751Z,26.70
2019-01-20T08:54:39.401Z,23.80
2019-01-20T08:57:07.032Z,24.75
2019-01-20T08:59:34.722Z,23.22
2019-01-20T09:02:02.408Z,23.22
2019-01-20T09:04:30.089Z,23.87
2019-01-20T09:06:57.801Z,23.92
2019-01-20T09:09:25.466Z,22.82
2019-01-20T09:11:53.088Z,24.85
2019-01-20T09:14:20.768Z,23.70
2019-01-20T09:16:49.060Z,25.88
2019-01-20T09:19:16.673Z,26.33
2019-01-20T09:21:44.464Z,23.45
2019-01-20T09:24:12.103Z,23.20
2019-01-20T09:26:39.776Z,21.30
2019-01-20T09:29:07.397Z,24.15
2019-01-20T09:31:35.078Z,21.93
2019-01-20T09:34:02.728Z,22.02
2019-01-20T09:36:30.427Z,22.95
2019-01-20T09:38:58.092Z,21.25
2019-01-20T09:41:25.751Z,22.37
2019-01-20T09:43:53.449Z,22.37
2019-01-20T09:46:21.116Z,21.70
2019-01-20T09:48:48.774Z,21.90
2019-01-20T09:51:16.464Z,23.15
2019-01-20T09:53:44.146Z,21.95
2019-01-20T09:56:11.823Z,20.80
2019-01-20T09:58:39.487Z,20.10
2019-01-20T10:01:07.131Z,21.25
2019-01-20T10:03:34.780Z,22.32
2019-01-20T10:06:02.428Z,21.37
2019-01-20T10:08:30.080Z,22.75
2019-01-20T10:10:57.729Z,21.23
2019-01-20T10:13:25.404Z,21.97
2019-01-20T10:15:53.095Z,23.73
2019-01-20T10:18:20.730Z,23.30
2019-01-20T10:20:48.426Z,20.85
2019-01-20T10:23:16.086Z,22.75
2019-01-20T10:25:43.724Z,22.45
2019-01-20T10:28:13.991Z,22.80
2019-01-20T10:30:41.647Z,23.47
2019-01-20T10:33:10.380Z,24.15
2019-01-20T10:35:48.252Z,22.65
2019-01-20T10:38:16.376Z,21.90
2019-01-20T10:40:44.103Z,23.73
2019-01-20T10:43:11.747Z,21.42
2019-01-20T10:45:39.421Z,23.47
2019-01-20T10:48:07.155Z,21.68
2019-01-20T10:50:34.824Z,23.90
2019-01-20T10:53:02.465Z,23.95
2019-01-20T10:55:30.255Z,23.67
2019-01-20T10:57:57.886Z,24.10
2019-01-20T11:00:27.835Z,26.40
2019-01-20T11:02:55.503Z,24.90
2019-01-20T11:05:25.094Z,24.50
2019-01-20T11:07:52.747Z,26.25
2019-01-20T11:10:20.380Z,26.90
2019-01-20T11:12:48.041Z,25.27
2019-01-20T11:15:15.822Z,24.82
2019-01-20T11:17:43.492Z,26.27
2019-01-20T11:20:12.012Z,25.97
2019-01-20T11:22:39.671Z,26.30
2019-01-20T11:25:10.152Z,26.05
2019-01-20T11:27:37.825Z,26.55
2019-01-20T11:30:05.959Z,26.95
2019-01-20T11:32:33.673Z,25.65
2019-01-20T11:35:01.267Z,24.00
2019-01-20T11:37:28.945Z,25.82
2019-01-20T11:39:56.592Z,24.85
2019-01-20T11:42:24.256Z,24.95
2019-01-20T11:44:51.964Z,26.15
2019-01-20T11:47:19.628Z,24.82
2019-01-20T11:49:47.231Z,25.45
2019-01-20T11:52:14.914Z,24.95
2019-01-20T11:54:42.519Z,24.92
2019-01-20T11:57:10.187Z,26.12
2019-01-20T11:59:37.845Z,25.55
2019-01-20T12:02:05.506Z,25.62
2019-01-20T12:04:33.164Z,27.20
2019-01-20T12:07:00.843Z,26.62
2019-01-20T12:09:28.499Z,24.50
2019-01-20T12:11:56.140Z,24.77
2019-01-20T12:14:24.191Z,23.95
2019-01-20T12:16:52.047Z,23.02
2019-01-20T12:19:19.714Z,24.72
2019-01-20T12:21:47.355Z,24.15
2019-01-20T12:24:15.060Z,26.33
2019-01-20T12:26:42.698Z,26.52
2019-01-20T12:29:10.340Z,25.02
2019-01-20T12:31:38.014Z,25.02
2019-01-20T12:34:05.655Z,23.15
2019-01-20T12:36:33.315Z,24.70
2019-01-20T12:39:00.962Z,24.70
2019-01-20T12:41:28.670Z,23.42
2019-01-20T12:43:56.328Z,22.73
2019-01-20T12:46:23.995Z,23.15
2019-01-20T12:48:51.647Z,22.00
2019-01-20T12:51:19.352Z,21.62
2019-01-20T12:53:47.255Z,23.50
2019-01-20T12:56:14.889Z,24.82
2019-01-20T12:58:42.547Z,24.43
2019-01-20T13:01:10.280Z,24.07
2019-01-20T13:03:37.919Z,22.65
2019-01-20T13:06:05.546Z,25.17
2019-01-20T13:08:33.255Z,24.82
2019-01-20T13:11:00.886Z,24.18
2019-01-20T13:13:28.579Z,23.45
2019-01-20T13:15:56.184Z,24.95
2019-01-20T13:18:23.873Z,25.95
2019-01-20T13:20:51.760Z,24.72
2019-01-20T13:23:19.560Z,25.50
2019-01-20T13:25:47.202Z,25.27
2019-01-20T13:28:14.832Z,25.20
2019-01-20T13:30:42.475Z,25.80
2019-01-20T13:33:10.094Z,22.15
2019-01-20T13:35:37.780Z,25.15
2019-01-20T13:38:13.891Z,27.07
2019-01-20T13:40:44.714Z,23.87
2019-01-20T13:43:12.355Z,24.95
2019-01-20T13:45:40.035Z,22.60
2019-01-20T13:48:07.725Z,25.32
2019-01-20T13:50:35.346Z,24.67
2019-01-20T13:53:03.093Z,25.75
2019-01-20T13:55:30.738Z,25.32
2019-01-20T13:57:58.426Z,26.37
2019-01-20T14:00:26.255Z,26.87
2019-01-20T14:02:53.860Z,26.62
2019-01-20T14:05:21.623Z,26.70
2019-01-20T14:07:49.375Z,27.98
2019-01-20T14:10:17.763Z,29.25
2019-01-20T14:12:45.621Z,30.12
2019-01-20T14:15:13.774Z,29.90
2019-01-20T14:17:41.480Z,31.68
2019-01-20T14:20:12.644Z,29.92
2019-01-20T14:22:40.290Z,27.35
2019-01-20T14:25:09.124Z,27.95
2019-01-20T14:27:36.747Z,28.15
2019-01-20T14:30:06.101Z,30.45
2019-01-20T14:32:33.732Z,30.27
2019-01-20T14:35:01.406Z,31.30
2019-01-20T14:37:29.071Z,30.60
2019-01-20T14:39:56.772Z,29.85
2019-01-20T14:42:24.436Z,28.98
2019-01-20T14:44:52.111Z,30.05
2019-01-20T14:47:19.803Z,30.15
2019-01-20T14:49:47.416Z,31.05
2019-01-20T14:52:15.104Z,30.65
2019-01-20T14:54:42.728Z,30.45
2019-01-20T14:57:10.448Z,31.95
2019-01-20T14:59:38.083Z,30.92
2019-01-20T15:02:05.737Z,30.85
2019-01-20T15:04:33.431Z,30.62
2019-01-20T15:07:01.139Z,30.65
2019-01-20T15:09:28.872Z,31.85
2019-01-20T15:11:56.506Z,31.73
2019-01-20T15:14:24.191Z,31.12
2019-01-20T15:16:51.863Z,33.55
2019-01-20T15:19:19.536Z,33.35
2019-01-20T15:21:47.180Z,29.95
2019-01-20T15:24:14.823Z,33.20
2019-01-20T15:26:42.486Z,32.67
2019-01-20T15:29:10.133Z,34.83
2019-01-20T15:31:37.777Z,34.25
2019-01-20T15:34:05.428Z,32.80
2019-01-20T15:36:33.207Z,32.55
2019-01-20T15:39:00.833Z,30.15
2019-01-20T15:41:28.478Z,33.05
2019-01-20T15:43:56.135Z,33.90
2019-01-20T15:46:23.806Z,30.52
2019-01-20T15:48:51.460Z,29.70
2019-01-20T15:51:19.123Z,30.72
2019-01-20T15:53:46.768Z,29.23
2019-01-20T15:56:14.416Z,29.23
2019-01-20T15:58:42.044Z,32.48
2019-01-20T16:01:09.681Z,30.48
2019-01-20T16:03:37.399Z,32.00
2019-01-20T16:06:04.995Z,31.97
2019-01-20T16:08:32.680Z,28.60
2019-01-20T16:11:00.347Z,29.48
2019-01-20T16:13:28.031Z,30.52
2019-01-20T16:15:55.713Z,30.45
2019-01-20T16:18:23.405Z,31.97
2019-01-20T16:20:51.029Z,30.37
2019-01-20T16:23:18.819Z,31.68
2019-01-20T16:25:46.489Z,30.70
2019-01-20T16:28:14.143Z,33.78
2019-01-20T16:30:41.806Z,33.90
2019-01-20T16:33:09.482Z,31.45
2019-01-20T16:35:37.119Z,33.20
2019-01-20T16:38:06.186Z,34.92
2019-01-20T16:40:33.891Z,33.70
2019-01-20T16:43:01.608Z,32.65
2019-01-20T16:45:41.626Z,35.80
2019-01-20T16:48:05.537Z,36.77
2019-01-20T16:50:33.524Z,33.42
2019-01-20T16:53:01.186Z,35.68
2019-01-20T16:55:28.816Z,34.45
2019-01-20T16:57:56.503Z,33.02
2019-01-20T17:00:26.282Z,34.60
2019-01-20T17:02:54.140Z,33.08
2019-01-20T17:05:26.541Z,37.00
2019-01-20T17:07:51.441Z,37.53
2019-01-20T17:10:21.237Z,31.80
2019-01-20T17:12:48.891Z,36.98
2019-01-20T17:15:21.635Z,36.83
2019-01-20T17:17:49.333Z,35.30
2019-01-20T17:20:17.025Z,34.75
2019-01-20T17:22:45.068Z,35.88
2019-01-20T17:25:13.336Z,35.58
2019-01-20T17:27:40.947Z,31.62
2019-01-20T17:30:11.944Z,32.48
2019-01-20T17:32:39.745Z,31.35
2019-01-20T17:35:08.328Z,33.38
2019-01-20T17:37:35.980Z,35.75
2019-01-20T17:40:05.040Z,32.73
2019-01-20T17:42:32.697Z,36.20
2019-01-20T17:45:00.391Z,33.38
2019-01-20T17:47:28.087Z,32.63
2019-01-20T17:49:55.713Z,31.17
2019-01-20T17:52:23.331Z,32.53
2019-01-20T17:54:51.027Z,32.25
2019-01-20T17:57:18.718Z,32.95
2019-01-20T17:59:46.327Z,31.95
2019-01-20T18:02:14.049Z,34.27
2019-01-20T18:04:41.739Z,33.13
2019-01-20T18:07:09.416Z,30.00
2019-01-20T18:09:37.100Z,34.88
2019-01-20T18:12:04.808Z,32.78
2019-01-20T18:14:32.424Z,33.75
2019-01-20T18:17:00.084Z,32.03
2019-01-20T18:19:27.746Z,33.00
2019-01-20T18:21:55.388Z,33.42
2019-01-20T18:24:23.071Z,31.75
2019-01-20T18:26:50.697Z,33.28
2019-01-20T18:29:18.372Z,34.40
2019-01-20T18:31:46.049Z,32.60
2019-01-20T18:34:13.664Z,32.25
2019-01-20T18:36:41.326Z,33.25
2019-01-20T18:39:09.049Z,33.02
2019-01-20T18:41:36.840Z,32.45
2019-01-20T18:44:04.570Z,32.50
2019-01-20T18:46:32.211Z,35.48
2019-01-20T18:48:59.886Z,33.02
2019-01-20T18:51:27.530Z,31.45
2019-01-20T18:53:55.223Z,33.70
2019-01-20T18:56:22.866Z,36.13
2019-01-20T18:58:50.594Z,36.93
2019-01-20T19:01:18.195Z,34.05
2019-01-20T19:03:45.868Z,34.35
2019-01-20T19:06:13.539Z,35.20
2019-01-20T19:08:41.251Z,37.20
2019-01-20T19:11:08.924Z,32.30
2019-01-20T19:13:36.597Z,33.53
2019-01-20T19:16:08.906Z,35.23
2019-01-20T19:18:33.791Z,33.63
2019-01-20T19:21:01.531Z,35.05
2019-01-20T19:23:29.177Z,38.35
2019-01-20T19:25:56.814Z,36.88
2019-01-20T19:28:24.500Z,35.90
2019-01-20T19:30:52.170Z,35.28
2019-01-20T19:33:19.876Z,34.30
2019-01-20T19:35:47.550Z,35.58
2019-01-20T19:38:15.224Z,40.50
2019-01-20T19:40:42.864Z,37.10
2019-01-20T19:43:10.506Z,38.23
2019-01-20T19:45:38.132Z,33.78
2019-01-20T19:48:05.783Z,35.83
2019-01-20T19:50:33.475Z,33.00
2019-01-20T19:53:01.175Z,41.63
2019-01-20T19:55:30.677Z,35.48
2019-01-20T19:57:58.529Z,33.30
2019-01-20T20:00:28.229Z,35.95
2019-01-20T20:02:56.110Z,34.50
2019-01-20T20:05:23.868Z,34.85
2019-01-20T20:07:52.368Z,34.88
2019-01-20T20:10:21.970Z,32.40
2019-01-20T20:12:49.931Z,32.80
2019-01-20T20:15:22.025Z,32.85
2019-01-20T20:17:49.694Z,31.90
2019-01-20T20:20:17.715Z,31.35
2019-01-20T20:23:06.312Z,33.75
2019-01-20T20:25:46.699Z,30.23
2019-01-20T20:28:26.468Z,29.98
2019-01-20T20:31:06.586Z,29.87
2019-01-20T20:33:46.686Z,29.42
2019-01-20T20:36:26.715Z,30.00
2019-01-20T20:39:06.632Z,31.20
2019-01-20T20:41:46.837Z,30.75
2019-01-20T20:44:27.081Z,29.42
2019-01-20T20:47:07.207Z,31.77
2019-01-20T20:49:47.278Z,31.97
2019-01-20T20:52:27.337Z,31.02
2019-01-20T20:55:07.430Z,32.00
2019-01-20T20:57:47.615Z,30.45
2019-01-20T21:00:27.459Z,32.73
2019-01-20T21:03:07.708Z,32.30
2019-01-20T21:05:47.705Z,30.27
2019-01-20T21:08:27.840Z,31.05
2019-01-20T21:11:07.940Z,31.52
2019-01-20T21:13:47.723Z,30.70
2019-01-20T21:16:27.885Z,30.32
2019-01-20T21:19:08.060Z,30.70
2019-01-20T21:21:48.188Z,30.08
2019-01-20T21:24:28.283Z,30.12
2019-01-20T21:27:08.104Z,31.35
2019-01-20T21:29:48.165Z,31.70
2019-01-20T21:32:28.218Z,30.68
2019-01-20T21:35:08.445Z,29.10
2019-01-20T21:37:48.486Z,30.92
2019-01-20T21:40:28.413Z,30.88
2019-01-20T21:43:08.533Z,30.17
2019-01-20T21:45:48.361Z,31.57
2019-01-20T21:48:28.463Z,31.10
2019-01-20T21:51:08.390Z,32.75
2019-01-20T21:53:48.672Z,31.93
2019-01-20T21:56:29.156Z,30.17
2019-01-20T21:59:09.209Z,30.45
2019-01-20T22:01:49.276Z,31.30
2019-01-20T22:04:29.368Z,33.00
2019-01-20T22:07:09.258Z,31.93
2019-01-20T22:09:49.475Z,29.98
2019-01-20T22:12:29.792Z,32.00
2019-01-20T22:15:09.547Z,28.83
2019-01-20T22:17:49.454Z,29.18
2019-01-20T22:20:29.532Z,27.80
2019-01-20T22:23:09.804Z,31.87
2019-01-20T22:25:49.702Z,32.35
2019-01-20T22:28:29.697Z,29.95
2019-01-20T22:31:09.559Z,32.17
2019-01-20T22:33:49.689Z,35.52
2019-01-20T22:36:30.084Z,36.00
2019-01-20T22:39:09.835Z,34.00
2019-01-20T22:41:49.606Z,33.53
2019-01-20T22:44:29.629Z,32.35
2019-01-20T22:47:09.327Z,34.60
2019-01-20T22:49:49.470Z,35.75
2019-01-20T22:52:29.374Z,35.60
2019-01-20T22:55:09.435Z,32.88
2019-01-20T22:57:49.334Z,33.83
2019-01-20T23:03:23.195Z,34.40
2019-01-20T23:06:03.183Z,34.65
2019-01-20T23:08:43.324Z,33.25
2019-01-20T23:11:23.336Z,34.00
2019-01-20T23:14:03.504Z,30.35
2019-01-20T23:16:43.473Z,31.45
2019-01-20T23:19:23.481Z,33.30
2019-01-20T23:22:03.597Z,34.35
2019-01-20T23:24:43.501Z,31.25
2019-01-20T23:27:23.531Z,34.20
2019-01-20T23:30:03.598Z,35.40
2019-01-20T23:32:43.630Z,35.20
2019-01-20T23:35:23.584Z,34.15
2019-01-20T23:38:03.425Z,34.70
2019-01-20T23:40:43.407Z,33.85
2019-01-20T23:43:23.681Z,31.65
2019-01-20T23:46:03.876Z,35.33
2019-01-20T23:48:43.860Z,32.75
2019-01-20T23:51:23.672Z,32.80
2019-01-20T23:54:03.987Z,33.33
2019-01-20T23:56:43.989Z,34.15
2019-01-20T23:59:24.137Z,32.17
